createdAt,value
2018-07-06T00:02:30.629Z,17.00
2018-07-06T00:05:10.432Z,16.95
2018-07-06T00:07:50.414Z,16.98
2018-07-06T00:10:30.582Z,16.98
2018-07-06T00:13:10.523Z,16.96
2018-07-06T00:15:52.058Z,17.04
2018-07-06T00:18:32.378Z,17.06
2018-07-06T00:21:12.228Z,17.04
2018-07-06T00:23:52.491Z,16.97
2018-07-06T00:26:32.584Z,16.97
2018-07-06T00:29:12.507Z,17.01
2018-07-06T00:31:52.392Z,16.95
2018-07-06T00:34:33.309Z,16.91
2018-07-06T00:37:13.247Z,16.89
2018-07-06T00:39:53.332Z,16.83
2018-07-06T00:42:33.360Z,16.79
2018-07-06T00:45:13.429Z,16.86
2018-07-06T00:47:53.885Z,16.73
2018-07-06T00:50:33.930Z,16.79
2018-07-06T00:53:14.195Z,16.79
2018-07-06T00:55:54.322Z,16.76
2018-07-06T00:58:34.823Z,16.80
2018-07-06T01:01:14.624Z,16.87
2018-07-06T01:03:54.614Z,16.87
2018-07-06T01:06:34.721Z,16.80
2018-07-06T01:09:14.714Z,16.75
2018-07-06T01:11:54.611Z,16.80
2018-07-06T01:14:34.616Z,16.66
2018-07-06T01:17:16.567Z,16.68
2018-07-06T01:19:57.383Z,16.73
2018-07-06T01:22:38.295Z,16.71
2018-07-06T01:25:18.549Z,16.75
2018-07-06T01:27:58.452Z,16.62
2018-07-06T01:30:38.416Z,16.64
2018-07-06T01:33:18.363Z,16.67
2018-07-06T01:35:58.316Z,16.73
2018-07-06T01:38:38.416Z,16.73
2018-07-06T01:41:18.405Z,16.74
2018-07-06T01:43:58.258Z,16.70
2018-07-06T01:46:38.643Z,16.75
2018-07-06T01:49:18.905Z,16.72
2018-07-06T01:51:59.035Z,16.70
2018-07-06T01:54:39.208Z,16.71
2018-07-06T01:57:19.782Z,16.70
2018-07-06T01:59:59.746Z,16.65
2018-07-06T02:02:40.159Z,16.58
2018-07-06T02:05:20.245Z,16.45
2018-07-06T02:08:00.168Z,16.54
2018-07-06T02:10:40.360Z,16.65
2018-07-06T02:13:20.312Z,16.62
2018-07-06T02:16:00.499Z,16.67
2018-07-06T02:18:40.742Z,16.68
2018-07-06T02:21:20.758Z,16.69
2018-07-06T02:24:01.717Z,16.72
2018-07-06T02:26:41.585Z,16.68
2018-07-06T02:29:21.539Z,16.42
2018-07-06T02:32:01.685Z,16.54
2018-07-06T02:34:42.035Z,16.56
2018-07-06T02:37:22.294Z,16.64
2018-07-06T02:40:02.470Z,16.62
2018-07-06T02:42:42.657Z,16.66
2018-07-06T02:45:22.674Z,16.69
2018-07-06T02:48:02.730Z,16.71
2018-07-06T02:50:42.641Z,16.62
2018-07-06T02:53:23.130Z,16.65
2018-07-06T02:56:03.406Z,16.63
2018-07-06T02:58:43.427Z,16.51
2018-07-06T03:01:23.509Z,16.53
2018-07-06T03:04:03.647Z,16.57
2018-07-06T03:06:43.561Z,16.53
2018-07-06T03:09:23.548Z,16.54
2018-07-06T03:12:03.602Z,16.61
2018-07-06T03:14:43.398Z,16.67
2018-07-06T03:17:23.938Z,16.54
2018-07-06T03:20:03.927Z,16.57
2018-07-06T03:22:44.878Z,16.51
2018-07-06T03:25:25.114Z,16.52
2018-07-06T03:28:05.056Z,16.55
2018-07-06T03:30:44.799Z,16.63
2018-07-06T03:33:25.358Z,16.65
2018-07-06T03:36:05.396Z,16.58
2018-07-06T03:38:45.527Z,16.60
2018-07-06T03:41:25.644Z,16.60
2018-07-06T03:44:05.988Z,16.47
2018-07-06T03:46:46.131Z,16.50
2018-07-06T03:49:26.182Z,16.54
2018-07-06T03:52:06.212Z,16.55
2018-07-06T03:54:47.026Z,16.52
2018-07-06T03:57:27.171Z,16.48
2018-07-06T04:00:07.138Z,16.45
2018-07-06T04:02:47.147Z,16.44
2018-07-06T04:05:27.211Z,16.46
2018-07-06T04:08:07.116Z,16.51
2018-07-06T04:10:47.137Z,16.26
2018-07-06T04:13:27.278Z,16.19
2018-07-06T04:16:07.484Z,16.20
2018-07-06T04:18:47.421Z,16.26
2018-07-06T04:21:27.453Z,16.35
2018-07-06T04:24:07.513Z,16.33
2018-07-06T04:26:47.455Z,16.15
2018-07-06T04:29:27.693Z,16.26
2018-07-06T04:32:07.724Z,16.28
2018-07-06T04:34:47.912Z,16.26
2018-07-06T04:37:27.659Z,16.34
2018-07-06T04:40:07.698Z,16.32
2018-07-06T04:42:47.517Z,16.36
2018-07-06T04:45:27.299Z,16.43
2018-07-06T04:48:07.545Z,16.45
2018-07-06T04:50:47.793Z,16.27
2018-07-06T04:53:28.164Z,16.39
2018-07-06T04:56:08.195Z,16.36
2018-07-06T04:58:48.087Z,16.25
2018-07-06T05:01:28.140Z,16.09
2018-07-06T05:04:07.960Z,16.26
2018-07-06T05:06:48.234Z,16.43
2018-07-06T05:09:28.154Z,16.30
2018-07-06T05:12:08.174Z,16.16
2018-07-06T05:14:48.303Z,16.18
2018-07-06T05:17:28.412Z,16.18
2018-07-06T05:20:08.612Z,16.26
2018-07-06T05:22:48.722Z,16.32
2018-07-06T05:25:29.133Z,16.14
2018-07-06T05:28:09.304Z,15.98
2018-07-06T05:30:49.379Z,15.85
2018-07-06T05:33:30.165Z,15.96
2018-07-06T05:36:10.413Z,15.97
2018-07-06T05:38:50.598Z,16.06
2018-07-06T05:41:31.184Z,15.85
2018-07-06T05:44:11.331Z,15.92
2018-07-06T05:46:51.344Z,16.03
2018-07-06T05:49:32.558Z,16.00
2018-07-06T05:52:12.620Z,16.03
2018-07-06T05:54:52.765Z,16.01
2018-07-06T05:57:32.854Z,15.87
2018-07-06T06:00:13.028Z,15.97
2018-07-06T06:02:52.957Z,16.02
2018-07-06T06:05:32.839Z,16.11
2018-07-06T06:08:00.799Z,16.10
2018-07-06T06:10:30.264Z,16.14
2018-07-06T06:12:59.723Z,16.20
2018-07-06T06:15:29.210Z,16.23
2018-07-06T06:17:59.183Z,16.18
2018-07-06T06:20:28.667Z,16.28
2018-07-06T06:22:58.202Z,16.11
2018-07-06T06:25:28.604Z,16.16
2018-07-06T06:27:57.971Z,16.21
2018-07-06T06:30:27.432Z,16.16
2018-07-06T06:32:56.830Z,16.20
2018-07-06T06:35:26.471Z,16.18
2018-07-06T06:37:56.668Z,16.28
2018-07-06T06:40:26.130Z,16.34
2018-07-06T06:42:55.612Z,16.32
2018-07-06T06:45:25.067Z,16.34
2018-07-06T06:47:54.588Z,16.37
2018-07-06T06:50:24.175Z,16.40
2018-07-06T06:52:53.683Z,16.44
2018-07-06T06:55:23.201Z,16.44
2018-07-06T06:57:52.631Z,16.48
2018-07-06T07:00:27.484Z,16.43
2018-07-06T07:02:51.601Z,16.48
2018-07-06T07:05:21.113Z,16.57
2018-07-06T07:07:50.710Z,16.61
2018-07-06T07:10:20.133Z,16.66
2018-07-06T07:12:49.744Z,16.60
2018-07-06T07:15:19.166Z,16.60
2018-07-06T07:17:49.382Z,16.61
2018-07-06T07:20:18.692Z,16.64
2018-07-06T07:22:48.063Z,16.72
2018-07-06T07:25:17.461Z,16.70
2018-07-06T07:27:46.846Z,16.73
2018-07-06T07:30:16.859Z,16.69
2018-07-06T07:32:46.605Z,16.76
2018-07-06T07:35:16.358Z,16.77
2018-07-06T07:37:46.000Z,16.84
2018-07-06T07:40:15.343Z,16.81
2018-07-06T07:42:44.962Z,16.63
2018-07-06T07:45:14.363Z,16.55
2018-07-06T07:47:43.726Z,16.62
2018-07-06T07:50:13.147Z,16.72
2018-07-06T07:52:53.252Z,16.80
2018-07-06T07:55:22.955Z,16.68
2018-07-06T07:57:52.414Z,16.78
2018-07-06T08:00:21.897Z,16.72
2018-07-06T08:02:51.088Z,16.83
2018-07-06T08:05:20.628Z,16.70
2018-07-06T08:07:51.054Z,16.66
2018-07-06T08:10:21.267Z,16.67
2018-07-06T08:12:50.850Z,16.72
2018-07-06T08:15:20.395Z,16.81
2018-07-06T08:17:49.821Z,16.82
2018-07-06T08:20:19.301Z,16.72
2018-07-06T08:22:48.606Z,16.72
2018-07-06T08:25:18.138Z,16.87
2018-07-06T08:27:47.954Z,16.79
2018-07-06T08:30:17.393Z,16.84
2018-07-06T08:32:47.240Z,16.98
2018-07-06T08:35:28.445Z,16.89
2018-07-06T08:38:02.845Z,16.85
2018-07-06T08:40:32.351Z,16.82
2018-07-06T08:43:03.633Z,16.85
2018-07-06T08:45:34.367Z,16.87
2018-07-06T08:48:05.289Z,17.12
2018-07-06T08:50:34.674Z,16.94
2018-07-06T08:53:04.646Z,16.92
2018-07-06T08:55:35.001Z,17.00
2018-07-06T08:58:04.484Z,16.98
2018-07-06T09:00:34.042Z,17.09
2018-07-06T09:03:03.437Z,17.00
2018-07-06T09:05:32.823Z,16.95
2018-07-06T09:08:02.445Z,17.06
2018-07-06T09:10:31.678Z,17.15
2018-07-06T09:13:01.130Z,17.14
2018-07-06T09:15:32.143Z,17.17
2018-07-06T09:18:02.077Z,17.22
2018-07-06T09:20:31.566Z,17.18
2018-07-06T09:23:01.929Z,17.23
2018-07-06T09:25:31.457Z,17.13
2018-07-06T09:28:00.921Z,17.12
2018-07-06T09:30:30.489Z,17.13
2018-07-06T09:33:00.068Z,17.14
2018-07-06T09:35:29.495Z,17.08
2018-07-06T09:37:58.830Z,17.25
2018-07-06T09:40:28.668Z,17.32
2018-07-06T09:42:58.114Z,17.43
2018-07-06T09:45:27.582Z,17.32
2018-07-06T09:47:57.102Z,17.46
2018-07-06T09:50:27.819Z,17.38
2018-07-06T09:52:57.188Z,17.45
2018-07-06T09:55:26.858Z,17.50
2018-07-06T09:57:56.227Z,17.41
2018-07-06T10:00:30.647Z,17.37
2018-07-06T10:03:00.097Z,17.51
2018-07-06T10:05:30.426Z,17.24
2018-07-06T10:08:01.076Z,17.26
2018-07-06T10:10:30.395Z,17.23
2018-07-06T10:13:00.932Z,17.27
2018-07-06T10:15:32.732Z,17.38
2018-07-06T10:18:02.074Z,17.65
2018-07-06T10:20:31.702Z,17.50
2018-07-06T10:23:01.075Z,17.36
2018-07-06T10:25:30.363Z,17.49
2018-07-06T10:28:13.905Z,17.57
2018-07-06T10:31:23.522Z,17.57
2018-07-06T10:33:52.680Z,17.72
2018-07-06T10:36:21.923Z,17.69
2018-07-06T10:38:51.303Z,17.62
2018-07-06T10:41:20.817Z,17.72
2018-07-06T10:43:50.442Z,17.74
2018-07-06T10:46:19.599Z,17.80
2018-07-06T10:48:48.884Z,17.75
2018-07-06T10:51:18.057Z,17.92
2018-07-06T10:53:48.781Z,17.88
2018-07-06T10:56:17.963Z,17.95
2018-07-06T10:58:47.932Z,18.21
2018-07-06T11:01:17.407Z,18.05
2018-07-06T11:03:46.840Z,17.96
2018-07-06T11:06:16.282Z,17.79
2018-07-06T11:08:46.596Z,17.94
2018-07-06T11:11:16.059Z,17.95
2018-07-06T11:13:45.635Z,17.95
2018-07-06T11:16:15.988Z,18.02
2018-07-06T11:18:45.282Z,18.09
2018-07-06T11:21:15.255Z,17.97
2018-07-06T11:23:44.866Z,17.96
2018-07-06T11:26:14.910Z,18.04
2018-07-06T11:28:44.322Z,18.13
2018-07-06T11:31:14.678Z,18.16
2018-07-06T11:33:44.699Z,18.29
2018-07-06T11:36:14.090Z,18.30
2018-07-06T11:38:43.537Z,18.36
2018-07-06T11:41:13.116Z,18.36
2018-07-06T11:43:42.514Z,18.33
2018-07-06T11:46:11.814Z,18.47
2018-07-06T11:48:41.286Z,18.41
2018-07-06T11:51:10.812Z,18.40
2018-07-06T11:53:40.174Z,18.40
2018-07-06T11:56:09.791Z,18.33
2018-07-06T11:58:39.262Z,18.43
2018-07-06T12:01:08.650Z,18.43
2018-07-06T12:03:38.179Z,18.44
2018-07-06T12:06:08.295Z,18.53
2018-07-06T12:08:37.909Z,18.40
2018-07-06T12:11:07.140Z,18.38
2018-07-06T12:13:36.937Z,18.37
2018-07-06T12:16:06.274Z,18.40
2018-07-06T12:18:35.777Z,18.29
2018-07-06T12:21:05.302Z,18.37
2018-07-06T12:23:34.648Z,18.45
2018-07-06T12:26:04.111Z,18.48
2018-07-06T12:28:33.587Z,18.24
2018-07-06T12:31:03.111Z,18.42
2018-07-06T12:33:32.402Z,18.52
2018-07-06T12:36:01.913Z,18.54
2018-07-06T12:38:31.393Z,18.60
2018-07-06T12:41:00.824Z,18.64
2018-07-06T12:43:31.119Z,18.61
2018-07-06T12:46:01.500Z,18.61
2018-07-06T12:48:31.826Z,18.62
2018-07-06T12:51:01.253Z,18.55
2018-07-06T12:53:30.710Z,18.59
2018-07-06T12:56:00.285Z,18.59
2018-07-06T12:58:29.882Z,18.56
2018-07-06T13:00:59.481Z,18.52
2018-07-06T13:03:28.937Z,18.53
2018-07-06T13:05:58.503Z,18.44
2018-07-06T13:08:27.841Z,18.38
2018-07-06T13:10:57.142Z,18.38
2018-07-06T13:13:26.660Z,18.44
2018-07-06T13:15:56.082Z,18.44
2018-07-06T13:18:25.731Z,18.48
2018-07-06T13:20:55.599Z,18.46
2018-07-06T13:23:24.818Z,18.44
2018-07-06T13:25:54.239Z,18.36
2018-07-06T13:28:24.211Z,18.40
2018-07-06T13:30:53.893Z,18.45
2018-07-06T13:33:23.762Z,18.50
2018-07-06T13:35:53.157Z,18.51
2018-07-06T13:38:22.662Z,18.55
2018-07-06T13:40:51.985Z,18.62
2018-07-06T13:43:21.366Z,18.64
2018-07-06T13:45:50.816Z,18.62
2018-07-06T13:48:20.382Z,18.63
2018-07-06T13:50:50.220Z,18.74
2018-07-06T13:53:19.905Z,18.66
2018-07-06T13:55:49.469Z,18.70
2018-07-06T13:58:18.898Z,18.75
2018-07-06T14:00:48.324Z,18.74
2018-07-06T14:03:18.039Z,18.92
2018-07-06T14:05:47.553Z,18.97
2018-07-06T14:08:17.006Z,19.01
2018-07-06T14:10:46.449Z,19.05
2018-07-06T14:13:15.899Z,19.02
2018-07-06T14:15:45.079Z,19.05
2018-07-06T14:18:14.450Z,19.18
2018-07-06T14:20:43.778Z,19.18
2018-07-06T14:23:13.089Z,19.16
2018-07-06T14:25:42.498Z,19.27
2018-07-06T14:28:11.927Z,19.28
2018-07-06T14:30:41.261Z,19.30
2018-07-06T14:33:10.795Z,19.24
2018-07-06T14:35:40.332Z,19.36
2018-07-06T14:38:09.756Z,19.38
2018-07-06T14:40:39.218Z,19.45
2018-07-06T14:43:08.665Z,19.43
2018-07-06T14:45:38.035Z,19.48
2018-07-06T14:48:07.630Z,19.21
2018-07-06T14:50:37.076Z,19.27
2018-07-06T14:53:09.226Z,19.20
2018-07-06T14:55:39.148Z,19.33
2018-07-06T14:58:08.799Z,19.46
2018-07-06T15:00:39.693Z,19.32
2018-07-06T15:03:09.309Z,19.35
2018-07-06T15:05:38.719Z,19.28
2018-07-06T15:08:08.507Z,19.31
2018-07-06T15:10:39.441Z,19.21
2018-07-06T15:13:09.018Z,19.15
2018-07-06T15:15:38.538Z,19.13
2018-07-06T15:18:08.006Z,19.20
2018-07-06T15:20:37.438Z,19.18
2018-07-06T15:23:07.323Z,19.10
2018-07-06T15:25:36.705Z,19.06
2018-07-06T15:28:06.560Z,19.09
2018-07-06T15:30:36.039Z,19.12
2018-07-06T15:33:07.778Z,19.01
2018-07-06T15:35:37.249Z,18.92
2018-07-06T15:38:06.769Z,18.98
2018-07-06T15:40:37.420Z,19.01
2018-07-06T15:43:07.293Z,19.06
2018-07-06T15:45:36.611Z,19.03
2018-07-06T15:48:06.265Z,18.96
2018-07-06T15:50:36.168Z,19.01
2018-07-06T15:53:05.632Z,18.73
2018-07-06T15:55:35.894Z,18.72
2018-07-06T15:58:05.675Z,18.72
2018-07-06T16:00:35.745Z,18.88
2018-07-06T16:03:06.884Z,18.76
2018-07-06T16:05:36.463Z,18.86
2018-07-06T16:08:06.003Z,18.78
2018-07-06T16:10:35.565Z,18.74
2018-07-06T16:13:05.106Z,18.73
2018-07-06T16:15:35.145Z,18.67
2018-07-06T16:18:04.641Z,18.61
2018-07-06T16:20:34.204Z,18.53
2018-07-06T16:23:03.620Z,18.44
2018-07-06T16:25:33.135Z,18.47
2018-07-06T16:28:03.305Z,18.53
2018-07-06T16:30:32.800Z,18.46
2018-07-06T16:33:02.819Z,18.45
2018-07-06T16:35:32.406Z,18.41
2018-07-06T16:38:01.859Z,18.38
2018-07-06T16:40:31.716Z,18.31
2018-07-06T16:43:01.695Z,18.33
2018-07-06T16:45:31.320Z,18.22
2018-07-06T16:48:01.053Z,18.24
2018-07-06T16:50:30.777Z,18.18
2018-07-06T16:53:00.162Z,18.22
2018-07-06T16:55:29.725Z,18.22
2018-07-06T16:57:59.495Z,18.23
2018-07-06T17:00:29.772Z,18.14
2018-07-06T17:02:59.232Z,18.08
2018-07-06T17:05:29.367Z,18.08
2018-07-06T17:07:58.890Z,18.06
2018-07-06T17:10:28.363Z,17.98
2018-07-06T17:12:58.188Z,17.95
2018-07-06T17:15:28.780Z,17.91
2018-07-06T17:17:58.277Z,17.93
2018-07-06T17:20:27.674Z,17.90
2018-07-06T17:22:57.166Z,17.91
2018-07-06T17:25:26.584Z,17.87
2018-07-06T17:27:56.099Z,17.78
2018-07-06T17:30:25.743Z,17.89
2018-07-06T17:32:55.045Z,17.81
2018-07-06T17:35:24.444Z,17.64
2018-07-06T17:37:54.102Z,17.70
2018-07-06T17:40:23.769Z,17.79
2018-07-06T17:42:53.216Z,17.69
2018-07-06T17:45:22.717Z,17.71
2018-07-06T17:47:52.520Z,17.71
2018-07-06T17:50:22.052Z,17.70
2018-07-06T17:52:51.496Z,17.66
2018-07-06T17:55:20.988Z,17.64
2018-07-06T17:57:50.574Z,17.62
2018-07-06T18:00:20.055Z,17.60
2018-07-06T18:02:50.086Z,17.65
2018-07-06T18:05:19.486Z,17.53
2018-07-06T18:07:49.362Z,17.43
2018-07-06T18:10:18.796Z,17.39
2018-07-06T18:12:49.322Z,17.41
2018-07-06T18:15:19.309Z,17.37
2018-07-06T18:17:48.778Z,17.38
2018-07-06T18:20:18.415Z,17.42
2018-07-06T18:22:48.129Z,17.49
2018-07-06T18:25:17.455Z,17.41
2018-07-06T18:27:46.893Z,17.37
2018-07-06T18:30:16.307Z,17.43
2018-07-06T18:32:45.688Z,17.42
2018-07-06T18:35:15.052Z,17.43
2018-07-06T18:37:44.550Z,17.36
2018-07-06T18:40:14.462Z,17.33
2018-07-06T18:42:43.957Z,17.37
2018-07-06T18:45:13.413Z,17.32
2018-07-06T18:47:42.924Z,17.34
2018-07-06T18:50:13.476Z,17.32
2018-07-06T18:52:43.850Z,17.27
2018-07-06T18:55:13.281Z,17.23
2018-07-06T18:57:43.343Z,17.24
2018-07-06T19:00:12.836Z,17.25
2018-07-06T19:02:42.535Z,17.27
2018-07-06T19:05:12.887Z,17.20
2018-07-06T19:07:43.493Z,17.11
2018-07-06T19:10:13.108Z,17.09
2018-07-06T19:12:43.068Z,17.13
2018-07-06T19:15:12.464Z,17.10
2018-07-06T19:17:41.957Z,17.14
2018-07-06T19:20:11.502Z,17.13
2018-07-06T19:22:41.103Z,17.10
2018-07-06T19:25:10.699Z,17.08
2018-07-06T19:27:40.361Z,17.08
2018-07-06T19:30:09.589Z,17.14
2018-07-06T19:32:39.336Z,17.10
2018-07-06T19:35:10.548Z,17.15
2018-07-06T19:37:40.009Z,17.05
2018-07-06T19:40:09.623Z,17.02
2018-07-06T19:42:39.073Z,17.04
2018-07-06T19:45:08.797Z,17.01
2018-07-06T19:47:38.170Z,16.93
2018-07-06T19:50:07.796Z,16.93
2018-07-06T19:52:37.206Z,16.94
2018-07-06T19:55:08.102Z,16.92
2018-07-06T19:57:37.590Z,16.94
2018-07-06T20:00:06.976Z,16.91
2018-07-06T20:02:37.471Z,16.85
2018-07-06T20:05:06.865Z,16.95
2018-07-06T20:07:35.910Z,16.94
2018-07-06T20:10:05.252Z,16.93
2018-07-06T20:12:34.305Z,16.96
2018-07-06T20:15:03.606Z,16.94
2018-07-06T20:17:32.976Z,16.93
2018-07-06T20:20:02.470Z,16.90
2018-07-06T20:22:32.227Z,16.81
2018-07-06T20:25:01.911Z,16.89
2018-07-06T20:27:32.095Z,16.91
2018-07-06T20:30:01.855Z,16.96
2018-07-06T20:32:31.130Z,16.88
2018-07-06T20:35:00.621Z,16.88
2018-07-06T20:37:29.725Z,16.95
2018-07-06T20:40:00.471Z,16.91
2018-07-06T20:42:29.947Z,16.88
2018-07-06T20:44:59.041Z,16.84
2018-07-06T20:47:29.300Z,16.73
2018-07-06T20:49:58.579Z,16.71
2018-07-06T20:52:27.906Z,16.71
2018-07-06T20:54:59.251Z,16.67
2018-07-06T20:57:29.757Z,16.64
2018-07-06T20:59:59.285Z,16.72
2018-07-06T21:02:28.939Z,16.78
2018-07-06T21:04:58.621Z,16.79
2018-07-06T21:07:28.101Z,16.79
2018-07-06T21:09:57.701Z,16.83
2018-07-06T21:12:26.917Z,16.80
2018-07-06T21:14:56.081Z,16.71
2018-07-06T21:17:25.864Z,16.76
2018-07-06T21:19:54.971Z,16.78
2018-07-06T21:22:25.400Z,16.74
2018-07-06T21:24:54.804Z,16.74
2018-07-06T21:27:23.920Z,16.70
2018-07-06T21:29:53.143Z,16.70
2018-07-06T21:32:22.425Z,16.72
2018-07-06T21:34:51.668Z,16.68
2018-07-06T21:37:20.953Z,16.65
2018-07-06T21:39:50.453Z,16.65
2018-07-06T21:42:21.467Z,16.67
2018-07-06T21:44:50.710Z,16.68
2018-07-06T21:47:20.358Z,16.58
2018-07-06T21:49:49.886Z,16.63
2018-07-06T21:52:19.257Z,16.60
2018-07-06T21:54:48.742Z,16.58
2018-07-06T21:57:18.108Z,16.55
2018-07-06T21:59:47.201Z,16.56
2018-07-06T22:02:17.279Z,16.58
2018-07-06T22:04:47.974Z,16.58
2018-07-06T22:07:17.934Z,16.59
2018-07-06T22:09:47.433Z,16.59
2018-07-06T22:12:17.665Z,16.63
2018-07-06T22:14:46.783Z,16.67
2018-07-06T22:17:16.172Z,16.51
2018-07-06T22:19:45.441Z,16.56
2018-07-06T22:22:14.693Z,16.51
2018-07-06T22:24:44.087Z,16.47
2018-07-06T22:27:14.135Z,16.44
2018-07-06T22:29:44.563Z,16.46
2018-07-06T22:32:13.992Z,16.39
2018-07-06T22:34:43.446Z,16.42
2018-07-06T22:37:12.816Z,16.46
2018-07-06T22:39:42.141Z,16.49
2018-07-06T22:42:12.721Z,16.49
2018-07-06T22:44:42.217Z,16.44
2018-07-06T22:47:12.435Z,16.47
2018-07-06T22:49:41.813Z,16.41
2018-07-06T22:52:11.068Z,16.43
2018-07-06T22:54:40.488Z,16.30
2018-07-06T22:57:09.925Z,16.27
2018-07-06T22:59:39.366Z,16.24
2018-07-06T23:02:09.099Z,16.30
2018-07-06T23:04:38.330Z,16.23
2018-07-06T23:07:07.814Z,16.26
2018-07-06T23:09:37.033Z,16.23
2018-07-06T23:12:06.444Z,16.29
2018-07-06T23:14:35.954Z,16.28
2018-07-06T23:17:05.321Z,16.23
2018-07-06T23:19:34.646Z,16.23
2018-07-06T23:22:04.092Z,16.15
2018-07-06T23:24:33.529Z,16.08
2018-07-06T23:27:02.622Z,16.21
2018-07-06T23:29:31.891Z,16.21
2018-07-06T23:32:01.844Z,16.12
2018-07-06T23:34:31.380Z,16.06
2018-07-06T23:37:00.743Z,16.11
2018-07-06T23:39:30.306Z,16.14
2018-07-06T23:41:59.500Z,16.08
2018-07-06T23:44:28.947Z,16.13
2018-07-06T23:46:58.134Z,16.10
2018-07-06T23:49:27.486Z,16.09
2018-07-06T23:51:56.724Z,16.13
2018-07-06T23:54:26.123Z,16.12
2018-07-06T23:56:55.429Z,16.07
2018-07-06T23:59:24.664Z,16.05
